createdAt,value
2017-10-13T00:00:23.339Z,11.47
2017-10-13T00:01:23.912Z,11.47
2017-10-13T00:02:24.483Z,11.45
2017-10-13T00:03:25.056Z,11.41
2017-10-13T00:04:25.626Z,11.47
2017-10-13T00:05:26.199Z,11.33
2017-10-13T00:06:26.769Z,11.41
2017-10-13T00:07:27.342Z,11.44
2017-10-13T00:08:27.912Z,11.44
2017-10-13T00:09:28.482Z,11.47
2017-10-13T00:10:29.052Z,11.47
2017-10-13T00:11:29.623Z,11.45
2017-10-13T00:12:30.195Z,11.43
2017-10-13T00:13:30.766Z,11.44
2017-10-13T00:14:31.347Z,11.44
2017-10-13T00:15:31.928Z,11.45
2017-10-13T00:16:32.498Z,11.40
2017-10-13T00:17:33.068Z,11.41
2017-10-13T00:18:33.640Z,11.47
2017-10-13T00:19:34.213Z,11.41
2017-10-13T00:20:34.784Z,11.45
2017-10-13T00:21:35.356Z,11.40
2017-10-13T00:22:35.928Z,11.44
2017-10-13T00:23:36.502Z,11.40
2017-10-13T00:24:37.071Z,11.25
2017-10-13T00:25:37.643Z,11.27
2017-10-13T00:26:38.214Z,11.35
2017-10-13T00:27:38.785Z,11.30
2017-10-13T00:28:39.356Z,11.26
2017-10-13T00:29:39.926Z,11.27
2017-10-13T00:30:40.497Z,11.32
2017-10-13T00:31:41.068Z,11.29
2017-10-13T00:32:41.638Z,11.29
2017-10-13T00:33:42.208Z,11.18
2017-10-13T00:34:42.778Z,11.27
2017-10-13T00:35:43.351Z,11.23
2017-10-13T00:36:43.923Z,11.22
2017-10-13T00:37:44.495Z,11.18
2017-10-13T00:38:45.066Z,11.18
2017-10-13T00:39:45.637Z,11.18
2017-10-13T00:40:46.209Z,11.27
2017-10-13T00:41:46.779Z,11.26
2017-10-13T00:42:47.351Z,11.17
2017-10-13T00:43:47.922Z,11.18
2017-10-13T00:44:48.491Z,11.25
2017-10-13T00:45:49.062Z,11.22
2017-10-13T00:46:49.631Z,11.29
2017-10-13T00:47:50.212Z,11.23
2017-10-13T00:48:50.787Z,11.17
2017-10-13T00:49:51.364Z,11.10
2017-10-13T00:50:51.948Z,11.15
2017-10-13T00:51:52.519Z,11.14
2017-10-13T00:52:53.088Z,11.26
2017-10-13T00:53:53.659Z,11.19
2017-10-13T00:54:54.240Z,11.18
2017-10-13T00:55:54.813Z,11.04
2017-10-13T00:56:55.382Z,11.02
2017-10-13T00:57:55.956Z,11.00
2017-10-13T00:58:56.531Z,11.00
2017-10-13T00:59:57.099Z,10.94
2017-10-13T01:00:57.670Z,10.94
2017-10-13T01:01:58.242Z,10.86
2017-10-13T01:02:58.813Z,10.86
2017-10-13T01:03:59.382Z,10.86
2017-10-13T01:04:59.952Z,10.90
2017-10-13T01:06:00.523Z,10.90
2017-10-13T01:07:01.093Z,10.97
2017-10-13T01:08:01.662Z,11.00
2017-10-13T01:09:02.234Z,10.96
2017-10-13T01:10:02.805Z,10.97
2017-10-13T01:11:03.376Z,10.94
2017-10-13T01:12:03.947Z,10.82
2017-10-13T01:13:04.520Z,10.87
2017-10-13T01:14:05.092Z,10.87
2017-10-13T01:15:05.663Z,10.87
2017-10-13T01:16:06.234Z,10.89
2017-10-13T01:17:06.805Z,10.93
2017-10-13T01:18:07.377Z,10.87
2017-10-13T01:19:07.949Z,10.84
2017-10-13T01:20:08.519Z,10.99
2017-10-13T01:21:09.090Z,11.02
2017-10-13T01:22:09.661Z,10.99
2017-10-13T01:23:10.231Z,10.87
2017-10-13T01:24:10.804Z,10.86
2017-10-13T01:25:11.376Z,10.86
2017-10-13T01:26:11.949Z,10.87
2017-10-13T01:27:12.520Z,10.90
2017-10-13T01:28:13.101Z,10.84
2017-10-13T01:29:13.678Z,10.93
2017-10-13T01:30:14.256Z,10.82
2017-10-13T01:31:14.827Z,10.94
2017-10-13T01:32:15.398Z,10.86
2017-10-13T01:33:15.971Z,10.84
2017-10-13T01:34:16.540Z,10.86
2017-10-13T01:35:17.115Z,10.89
2017-10-13T01:36:17.684Z,10.79
2017-10-13T01:37:18.256Z,10.81
2017-10-13T01:38:18.827Z,10.86
2017-10-13T01:39:19.399Z,10.79
2017-10-13T01:40:19.972Z,10.84
2017-10-13T01:41:20.541Z,10.75
2017-10-13T01:42:21.112Z,10.82
2017-10-13T01:43:21.683Z,10.79
2017-10-13T01:44:22.261Z,10.81
2017-10-13T01:45:22.842Z,10.82
2017-10-13T01:46:23.394Z,10.74
2017-10-13T01:47:23.964Z,10.79
2017-10-13T01:48:24.541Z,10.82
2017-10-13T01:49:25.109Z,10.72
2017-10-13T01:50:25.692Z,10.78
2017-10-13T01:51:26.262Z,10.64
2017-10-13T01:52:26.832Z,10.76
2017-10-13T01:53:27.403Z,10.82
2017-10-13T01:54:27.974Z,10.87
2017-10-13T01:55:28.546Z,10.79
2017-10-13T01:56:29.118Z,10.96
2017-10-13T01:57:29.688Z,10.78
2017-10-13T01:58:30.261Z,10.89
2017-10-13T01:59:30.832Z,10.92
2017-10-13T02:00:31.415Z,10.84
2017-10-13T02:01:31.988Z,10.84
2017-10-13T02:02:32.560Z,10.89
2017-10-13T02:03:33.132Z,10.86
2017-10-13T02:04:33.702Z,10.90
2017-10-13T02:05:34.281Z,10.90
2017-10-13T02:06:34.844Z,11.02
2017-10-13T02:07:35.415Z,10.90
2017-10-13T02:08:35.987Z,10.90
2017-10-13T02:09:36.558Z,10.99
2017-10-13T02:10:37.128Z,10.90
2017-10-13T02:11:37.698Z,11.04
2017-10-13T02:12:38.270Z,10.89
2017-10-13T02:13:38.842Z,10.90
2017-10-13T02:14:39.415Z,10.93
2017-10-13T02:15:39.986Z,10.97
2017-10-13T02:16:40.567Z,11.02
2017-10-13T02:17:41.137Z,11.08
2017-10-13T02:18:41.708Z,11.00
2017-10-13T02:19:42.280Z,10.97
2017-10-13T02:20:42.867Z,11.00
2017-10-13T02:21:43.435Z,10.99
2017-10-13T02:22:44.006Z,10.99
2017-10-13T02:23:44.583Z,11.00
2017-10-13T02:24:45.148Z,10.96
2017-10-13T02:25:45.721Z,10.90
2017-10-13T02:26:46.292Z,10.92
2017-10-13T02:27:46.863Z,10.87
2017-10-13T02:28:47.443Z,10.89
2017-10-13T02:29:48.015Z,10.90
2017-10-13T02:30:48.585Z,10.86
2017-10-13T02:31:49.158Z,10.87
2017-10-13T02:32:49.729Z,10.87
2017-10-13T02:33:50.302Z,10.86
2017-10-13T02:34:50.872Z,10.94
2017-10-13T02:35:51.445Z,10.94
2017-10-13T02:36:52.027Z,10.96
2017-10-13T02:37:52.600Z,10.89
2017-10-13T02:38:53.171Z,10.96
2017-10-13T02:39:53.742Z,10.86
2017-10-13T02:40:54.323Z,10.86
2017-10-13T02:41:54.896Z,10.96
2017-10-13T02:42:55.467Z,10.99
2017-10-13T02:43:56.041Z,11.02
2017-10-13T02:44:56.612Z,10.94
2017-10-13T02:45:57.182Z,10.84
2017-10-13T02:46:57.754Z,10.86
2017-10-13T02:47:58.323Z,10.90
2017-10-13T02:48:58.895Z,10.84
2017-10-13T02:49:59.464Z,10.84
2017-10-13T02:51:00.034Z,10.75
2017-10-13T02:52:00.604Z,10.79
2017-10-13T02:53:01.174Z,10.89
2017-10-13T02:54:01.744Z,10.81
2017-10-13T02:55:02.314Z,10.75
2017-10-13T02:56:02.889Z,10.81
2017-10-13T02:57:03.454Z,10.79
2017-10-13T02:58:04.026Z,10.71
2017-10-13T02:59:04.597Z,10.67
2017-10-13T03:00:05.169Z,10.78
2017-10-13T03:01:05.741Z,10.68
2017-10-13T03:02:06.317Z,10.69
2017-10-13T03:03:06.884Z,10.74
2017-10-13T03:04:07.467Z,10.81
2017-10-13T03:05:08.038Z,10.78
2017-10-13T03:06:08.609Z,10.67
2017-10-13T03:07:09.180Z,10.79
2017-10-13T03:08:09.752Z,10.89
2017-10-13T03:09:10.323Z,10.86
2017-10-13T03:10:10.894Z,10.89
2017-10-13T03:11:11.464Z,10.84
2017-10-13T03:12:12.034Z,10.87
2017-10-13T03:13:12.605Z,10.87
2017-10-13T03:14:13.188Z,10.86
2017-10-13T03:15:13.760Z,10.82
2017-10-13T03:16:14.344Z,10.99
2017-10-13T03:17:14.914Z,10.93
2017-10-13T03:18:15.487Z,10.84
2017-10-13T03:19:16.079Z,10.96
2017-10-13T03:20:16.629Z,10.92
2017-10-13T03:21:17.202Z,10.96
2017-10-13T03:22:17.781Z,10.97
2017-10-13T03:23:18.353Z,10.96
2017-10-13T03:24:18.924Z,10.99
2017-10-13T03:25:19.495Z,10.99
2017-10-13T03:26:20.066Z,11.07
2017-10-13T03:27:20.638Z,10.93
2017-10-13T03:28:21.207Z,11.05
2017-10-13T03:29:21.779Z,10.87
2017-10-13T03:30:22.349Z,10.96
2017-10-13T03:31:22.918Z,11.00
2017-10-13T03:32:23.500Z,10.94
2017-10-13T03:33:24.070Z,10.89
2017-10-13T03:34:24.644Z,10.87
2017-10-13T03:35:25.214Z,10.81
2017-10-13T03:36:25.784Z,10.82
2017-10-13T03:37:26.354Z,10.90
2017-10-13T03:38:26.925Z,10.84
2017-10-13T03:39:27.496Z,10.81
2017-10-13T03:40:28.067Z,10.76
2017-10-13T03:41:28.637Z,10.89
2017-10-13T03:42:29.206Z,10.81
2017-10-13T03:43:29.780Z,10.74
2017-10-13T03:44:30.351Z,10.82
2017-10-13T03:45:30.922Z,10.75
2017-10-13T03:46:31.494Z,10.79
2017-10-13T03:47:32.069Z,10.67
2017-10-13T03:48:32.637Z,10.78
2017-10-13T03:49:33.219Z,10.75
2017-10-13T03:50:33.792Z,10.76
2017-10-13T03:51:34.362Z,10.69
2017-10-13T03:52:34.935Z,10.79
2017-10-13T03:53:35.505Z,10.84
2017-10-13T03:54:36.076Z,10.86
2017-10-13T03:55:36.647Z,10.76
2017-10-13T03:56:37.217Z,10.78
2017-10-13T03:57:37.788Z,10.64
2017-10-13T03:58:38.358Z,10.76
2017-10-13T03:59:38.928Z,10.63
2017-10-13T04:00:39.498Z,10.63
2017-10-13T04:01:40.067Z,10.63
2017-10-13T04:02:40.640Z,10.71
2017-10-13T04:03:41.262Z,10.69
2017-10-13T04:04:41.833Z,10.71
2017-10-13T04:05:42.404Z,10.68
2017-10-13T04:06:42.975Z,10.63
2017-10-13T04:07:43.544Z,10.71
2017-10-13T04:08:44.115Z,10.63
2017-10-13T04:09:44.685Z,10.59
2017-10-13T04:10:45.258Z,10.60
2017-10-13T04:11:45.839Z,10.68
2017-10-13T04:12:46.420Z,10.71
2017-10-13T04:13:46.992Z,10.68
2017-10-13T04:14:47.574Z,10.54
2017-10-13T04:15:48.143Z,10.59
2017-10-13T04:16:48.714Z,10.56
2017-10-13T04:17:49.282Z,10.56
2017-10-13T04:18:49.854Z,10.60
2017-10-13T04:19:50.425Z,10.61
2017-10-13T04:20:50.997Z,10.67
2017-10-13T04:21:51.571Z,10.63
2017-10-13T04:22:52.142Z,10.63
2017-10-13T04:23:52.712Z,10.60
2017-10-13T04:24:53.285Z,10.56
2017-10-13T04:25:53.855Z,10.61
2017-10-13T04:26:54.425Z,10.59
2017-10-13T04:27:54.996Z,10.60
2017-10-13T04:28:55.567Z,10.60
2017-10-13T04:29:56.137Z,10.49
2017-10-13T04:30:56.709Z,10.59
2017-10-13T04:31:57.281Z,10.59
2017-10-13T04:32:57.852Z,10.57
2017-10-13T04:33:58.425Z,10.54
2017-10-13T04:34:58.994Z,10.57
2017-10-13T04:35:59.566Z,10.51
2017-10-13T04:37:00.137Z,10.40
2017-10-13T04:38:00.708Z,10.54
2017-10-13T04:39:01.280Z,10.41
2017-10-13T04:40:01.848Z,10.51
2017-10-13T04:41:02.418Z,10.42
2017-10-13T04:42:02.999Z,10.40
2017-10-13T04:43:03.557Z,10.54
2017-10-13T04:44:04.129Z,10.41
2017-10-13T04:45:04.697Z,10.44
2017-10-13T04:46:05.268Z,10.41
2017-10-13T04:47:05.853Z,10.46
2017-10-13T04:48:06.421Z,10.53
2017-10-13T04:49:06.992Z,10.41
2017-10-13T04:50:07.566Z,10.46
2017-10-13T04:51:08.135Z,10.59
2017-10-13T04:52:08.704Z,10.53
2017-10-13T04:53:09.275Z,10.56
2017-10-13T04:54:09.849Z,10.63
2017-10-13T04:55:10.419Z,10.51
2017-10-13T04:56:10.991Z,10.56
2017-10-13T04:57:11.562Z,10.51
2017-10-13T04:58:12.134Z,10.54
2017-10-13T04:59:12.703Z,10.67
2017-10-13T05:00:13.274Z,10.69
2017-10-13T05:01:13.846Z,10.69
2017-10-13T05:02:14.418Z,10.74
2017-10-13T05:03:14.988Z,10.81
2017-10-13T05:04:15.564Z,10.79
2017-10-13T05:05:16.130Z,10.76
2017-10-13T05:06:16.701Z,10.75
2017-10-13T05:07:17.274Z,10.87
2017-10-13T05:08:17.844Z,10.84
2017-10-13T05:09:18.415Z,10.82
2017-10-13T05:10:18.984Z,10.90
2017-10-13T05:11:19.558Z,10.86
2017-10-13T05:12:20.140Z,10.94
2017-10-13T05:13:20.712Z,10.94
2017-10-13T05:14:21.283Z,10.86
2017-10-13T05:15:21.854Z,10.93
2017-10-13T05:16:22.425Z,10.96
2017-10-13T05:17:22.996Z,11.05
2017-10-13T05:18:23.565Z,11.00
2017-10-13T05:19:24.148Z,10.97
2017-10-13T05:20:24.717Z,11.15
2017-10-13T05:21:25.289Z,10.99
2017-10-13T05:22:25.860Z,11.02
2017-10-13T05:23:26.431Z,10.99
2017-10-13T05:24:27.001Z,11.05
2017-10-13T05:25:27.582Z,10.96
2017-10-13T05:26:28.155Z,10.93
2017-10-13T05:27:28.726Z,10.97
2017-10-13T05:28:29.297Z,11.02
2017-10-13T05:29:29.879Z,11.05
2017-10-13T05:30:30.450Z,10.97
2017-10-13T05:31:31.023Z,10.89
2017-10-13T05:32:31.594Z,10.89
2017-10-13T05:33:32.165Z,10.92
2017-10-13T05:34:32.735Z,10.92
2017-10-13T05:35:33.307Z,10.84
2017-10-13T05:36:33.876Z,10.82
2017-10-13T05:37:34.458Z,10.94
2017-10-13T05:38:35.031Z,10.94
2017-10-13T05:39:35.601Z,10.96
2017-10-13T05:40:36.180Z,10.97
2017-10-13T05:41:36.742Z,10.94
2017-10-13T05:42:37.313Z,10.90
2017-10-13T05:43:37.896Z,10.90
2017-10-13T05:44:38.466Z,10.93
2017-10-13T05:45:39.037Z,10.86
2017-10-13T05:46:39.608Z,10.87
2017-10-13T05:47:40.179Z,10.93
2017-10-13T05:48:40.750Z,10.82
2017-10-13T05:49:41.321Z,10.82
2017-10-13T07:25:41.507Z,12.13
2017-10-13T07:26:42.080Z,12.21
2017-10-13T07:27:42.655Z,12.24
2017-10-13T07:28:43.236Z,12.27
2017-10-13T07:29:43.816Z,12.25
2017-10-13T07:30:44.390Z,12.29
2017-10-13T07:31:44.965Z,12.37
2017-10-13T07:32:45.541Z,12.42
2017-10-13T07:33:46.115Z,12.42
2017-10-13T07:34:46.689Z,12.47
2017-10-13T07:35:47.263Z,12.40
2017-10-13T07:36:47.839Z,12.42
2017-10-13T07:37:48.415Z,12.42
2017-10-13T07:38:49.001Z,12.40
2017-10-13T07:39:49.577Z,12.42
2017-10-13T07:40:50.153Z,12.42
2017-10-13T07:41:50.727Z,12.60
2017-10-13T07:42:51.301Z,12.60
2017-10-13T07:43:51.878Z,12.57
2017-10-13T07:44:52.453Z,12.55
2017-10-13T07:45:53.028Z,12.70
2017-10-13T07:46:53.604Z,12.62
2017-10-13T07:47:54.193Z,12.67
2017-10-13T07:48:54.758Z,12.58
2017-10-13T07:49:55.333Z,12.65
2017-10-13T07:50:55.908Z,12.68
2017-10-13T07:51:56.485Z,12.73
2017-10-13T07:52:57.063Z,12.80
2017-10-13T07:53:57.638Z,12.76
2017-10-13T07:54:58.214Z,12.78
2017-10-13T07:55:58.790Z,12.86
2017-10-13T07:56:59.368Z,12.85
2017-10-13T07:57:59.942Z,12.97
2017-10-13T07:59:00.518Z,12.98
2017-10-13T08:00:01.096Z,12.98
2017-10-13T08:01:01.670Z,13.04
2017-10-13T08:02:02.249Z,13.18
2017-10-13T08:03:02.833Z,13.12
2017-10-13T08:04:03.407Z,13.13
2017-10-13T08:05:03.984Z,13.19
2017-10-13T08:06:04.562Z,13.16
2017-10-13T08:07:05.135Z,13.37
2017-10-13T08:08:05.711Z,13.33
2017-10-13T08:09:06.289Z,13.35
2017-10-13T08:10:06.861Z,13.42
2017-10-13T08:11:07.446Z,13.35
2017-10-13T08:12:08.022Z,13.42
2017-10-13T08:13:08.599Z,13.41
2017-10-13T08:14:09.175Z,13.46
2017-10-13T08:15:09.750Z,13.46
2017-10-13T08:16:10.325Z,13.50
2017-10-13T08:17:10.901Z,13.27
2017-10-13T08:18:11.489Z,13.44
2017-10-13T08:19:12.063Z,13.49
2017-10-13T08:20:12.641Z,13.53
2017-10-13T08:21:13.216Z,13.57
2017-10-13T08:22:13.794Z,13.56
2017-10-13T08:23:14.381Z,13.53
2017-10-13T08:24:14.955Z,13.60
2017-10-13T08:25:15.531Z,13.62
2017-10-13T08:26:16.119Z,13.56
2017-10-13T08:27:16.696Z,13.63
2017-10-13T08:28:17.272Z,13.60
2017-10-13T08:29:17.849Z,13.60
2017-10-13T08:30:18.424Z,13.57
2017-10-13T08:31:18.999Z,13.78
2017-10-13T08:32:19.577Z,13.67
2017-10-13T08:33:20.154Z,13.62
2017-10-13T08:34:20.730Z,13.62
2017-10-13T08:35:21.305Z,13.63
2017-10-13T08:36:21.882Z,13.57
2017-10-13T08:37:22.468Z,13.68
2017-10-13T08:38:23.055Z,13.70
2017-10-13T08:39:23.633Z,13.72
2017-10-13T08:40:24.208Z,13.89
2017-10-13T08:41:24.795Z,13.87
2017-10-13T08:42:25.369Z,13.81
2017-10-13T08:43:25.946Z,13.92
2017-10-13T08:44:26.524Z,14.08
2017-10-13T08:45:27.112Z,13.99
2017-10-13T08:46:27.688Z,13.99
2017-10-13T08:47:28.264Z,14.03
2017-10-13T08:48:28.840Z,14.00
2017-10-13T08:49:29.416Z,14.15
2017-10-13T08:50:29.994Z,14.15
2017-10-13T08:51:30.570Z,14.17
2017-10-13T08:52:31.146Z,14.18
2017-10-13T08:53:31.725Z,14.33
2017-10-13T08:54:32.310Z,14.47
2017-10-13T08:55:32.898Z,14.48
2017-10-13T08:56:33.474Z,14.44
2017-10-13T08:57:34.052Z,14.53
2017-10-13T08:58:34.628Z,14.62
2017-10-13T08:59:35.206Z,14.48
2017-10-13T09:00:35.783Z,14.58
2017-10-13T09:01:36.371Z,14.73
2017-10-13T09:02:36.945Z,14.68
2017-10-13T09:03:37.523Z,14.73
2017-10-13T09:04:38.099Z,14.65
2017-10-13T09:05:38.677Z,14.59
2017-10-13T09:06:39.252Z,14.62
2017-10-13T09:07:39.830Z,14.65
2017-10-13T09:08:40.407Z,14.65
2017-10-13T09:09:40.982Z,14.62
2017-10-13T09:10:41.560Z,14.60
2017-10-13T09:11:42.148Z,14.55
2017-10-13T09:12:42.725Z,14.62
2017-10-13T09:13:43.301Z,14.59
2017-10-13T09:14:43.880Z,14.63
2017-10-13T09:15:44.456Z,14.65
2017-10-13T09:16:45.032Z,14.84
2017-10-13T09:17:45.610Z,14.84
2017-10-13T09:18:46.186Z,14.84
2017-10-13T09:19:46.775Z,14.99
2017-10-13T09:20:47.353Z,15.06
2017-10-13T09:21:47.929Z,15.03
2017-10-13T09:22:48.505Z,15.31
2017-10-13T09:23:49.083Z,15.39
2017-10-13T09:24:49.659Z,15.40
2017-10-13T09:25:50.236Z,15.29
2017-10-13T09:26:50.825Z,15.31
2017-10-13T09:27:51.412Z,15.25
2017-10-13T09:28:52.000Z,15.15
2017-10-13T09:29:52.576Z,15.29
2017-10-13T09:30:53.164Z,15.22
2017-10-13T09:31:53.741Z,15.17
2017-10-13T09:32:54.318Z,15.18
2017-10-13T09:33:54.894Z,15.37
2017-10-13T09:34:55.471Z,15.43
2017-10-13T09:35:56.047Z,15.42
2017-10-13T09:36:56.625Z,15.44
2017-10-13T09:37:57.202Z,15.28
2017-10-13T09:38:57.778Z,15.37
2017-10-13T09:39:58.362Z,15.35
2017-10-13T09:40:58.932Z,15.55
2017-10-13T09:41:59.512Z,15.57
2017-10-13T09:43:00.087Z,15.67
2017-10-13T09:44:00.676Z,15.59
2017-10-13T09:45:01.252Z,15.70
2017-10-13T09:46:01.832Z,15.75
2017-10-13T09:47:02.405Z,15.79
2017-10-13T09:48:02.982Z,15.70
2017-10-13T09:49:03.561Z,15.80
2017-10-13T09:50:04.136Z,15.80
2017-10-13T09:51:04.714Z,15.75
2017-10-13T09:52:05.291Z,15.86
2017-10-13T09:53:05.868Z,15.83
2017-10-13T09:54:06.458Z,15.95
2017-10-13T09:55:07.034Z,16.01
2017-10-13T09:56:07.611Z,16.28
2017-10-13T09:57:08.188Z,16.17
2017-10-13T09:58:08.766Z,16.04
2017-10-13T09:59:09.344Z,15.98
2017-10-13T10:00:09.921Z,15.91
2017-10-13T10:01:10.509Z,16.10
2017-10-13T10:02:11.093Z,16.16
2017-10-13T10:03:11.664Z,16.01
2017-10-13T10:04:12.240Z,16.20
2017-10-13T10:05:12.830Z,16.08
2017-10-13T10:06:13.410Z,16.28
2017-10-13T10:07:14.002Z,16.15
2017-10-13T10:08:14.564Z,16.28
2017-10-13T10:09:15.144Z,16.29
2017-10-13T10:10:15.722Z,16.32
2017-10-13T10:11:16.297Z,16.26
2017-10-13T10:12:16.875Z,16.31
2017-10-13T10:13:17.454Z,16.38
2017-10-13T10:14:18.043Z,16.28
2017-10-13T10:15:18.623Z,16.28
2017-10-13T10:16:19.199Z,16.28
2017-10-13T10:17:19.776Z,16.41
2017-10-13T10:18:20.355Z,16.50
2017-10-13T10:19:20.931Z,16.38
2017-10-13T10:20:21.508Z,16.42
2017-10-13T10:21:22.085Z,16.47
2017-10-13T10:22:22.662Z,16.36
2017-10-13T10:23:23.243Z,16.51
2017-10-13T10:24:23.819Z,16.53
2017-10-13T10:25:24.397Z,16.43
2017-10-13T10:26:24.973Z,16.42
2017-10-13T10:27:25.552Z,16.43
2017-10-13T10:28:26.132Z,16.39
2017-10-13T10:29:26.708Z,16.46
2017-10-13T10:30:27.285Z,16.35
2017-10-13T10:31:27.873Z,16.47
2017-10-13T10:32:28.460Z,16.42
2017-10-13T10:33:29.020Z,16.51
2017-10-13T10:34:29.608Z,16.41
2017-10-13T10:35:30.185Z,16.47
2017-10-13T10:36:30.762Z,16.71
2017-10-13T10:37:31.341Z,16.61
2017-10-13T10:38:31.929Z,16.66
2017-10-13T10:39:32.509Z,16.66
2017-10-13T10:40:33.092Z,16.74
2017-10-13T10:41:33.661Z,16.83
2017-10-13T10:42:34.239Z,16.76
2017-10-13T10:43:34.824Z,16.71
2017-10-13T10:44:35.396Z,16.79
2017-10-13T10:45:35.973Z,16.93
2017-10-13T10:46:36.566Z,17.16
2017-10-13T10:47:37.129Z,17.01
2017-10-13T10:48:37.712Z,17.15
2017-10-13T10:49:38.298Z,17.16
2017-10-13T10:50:38.878Z,17.27
2017-10-13T10:51:39.454Z,17.31
2017-10-13T10:52:40.030Z,17.38
2017-10-13T10:53:40.610Z,17.33
2017-10-13T10:54:41.197Z,17.26
2017-10-13T10:55:41.778Z,17.41
2017-10-13T10:56:42.356Z,17.39
2017-10-13T10:57:42.934Z,17.45
2017-10-13T10:58:43.510Z,17.45
2017-10-13T10:59:44.088Z,17.54
2017-10-13T11:00:44.673Z,17.39
2017-10-13T11:01:45.246Z,17.33
2017-10-13T11:02:45.825Z,17.42
2017-10-13T11:03:46.415Z,17.48
2017-10-13T11:04:46.992Z,17.54
2017-10-13T11:05:47.583Z,17.68
2017-10-13T11:06:48.160Z,17.76
2017-10-13T11:07:48.742Z,17.90
2017-10-13T11:08:49.337Z,17.90
2017-10-13T11:09:49.908Z,17.86
2017-10-13T11:10:50.488Z,17.78
2017-10-13T11:11:51.064Z,17.83
2017-10-13T11:12:51.643Z,17.74
2017-10-13T11:13:52.222Z,17.97
2017-10-13T11:14:52.801Z,17.80
2017-10-13T11:15:53.378Z,17.74
2017-10-13T11:16:53.956Z,17.59
2017-10-13T11:17:54.534Z,17.60
2017-10-13T11:18:55.113Z,17.60
2017-10-13T11:19:55.691Z,17.59
2017-10-13T11:20:56.269Z,17.44
2017-10-13T11:21:56.846Z,17.64
2017-10-13T11:22:57.427Z,17.79
2017-10-13T11:23:58.005Z,17.97
2017-10-13T11:24:58.583Z,17.95
2017-10-13T11:25:59.163Z,18.07
2017-10-13T11:26:59.747Z,18.00
2017-10-13T11:28:00.320Z,17.98
2017-10-13T11:29:00.898Z,18.04
2017-10-13T11:30:01.478Z,18.10
2017-10-13T11:31:02.057Z,17.95
2017-10-13T11:32:02.635Z,18.08
2017-10-13T11:33:03.218Z,17.90
2017-10-13T11:34:03.806Z,17.90
2017-10-13T11:35:04.384Z,17.80
2017-10-13T11:36:04.962Z,17.85
2017-10-13T11:37:05.541Z,17.89
2017-10-13T11:38:06.119Z,17.64
2017-10-13T11:39:06.696Z,17.83
2017-10-13T11:40:07.276Z,17.98
2017-10-13T11:41:07.860Z,17.98
2017-10-13T11:42:08.432Z,18.15
2017-10-13T11:43:09.009Z,18.13
2017-10-13T11:44:09.587Z,18.10
2017-10-13T11:45:10.167Z,18.05
2017-10-13T11:46:10.747Z,18.18
2017-10-13T11:47:11.326Z,18.07
2017-10-13T11:48:11.905Z,18.03
2017-10-13T11:49:12.485Z,18.13
2017-10-13T11:50:13.063Z,18.03
2017-10-13T11:51:13.641Z,18.05
2017-10-13T11:52:14.219Z,18.05
2017-10-13T11:53:14.799Z,18.07
2017-10-13T11:54:15.378Z,18.22
2017-10-13T11:55:15.957Z,18.29
2017-10-13T11:56:16.534Z,18.25
2017-10-13T11:57:17.113Z,18.26
2017-10-13T11:58:17.693Z,18.25
2017-10-13T11:59:18.272Z,18.34
2017-10-13T12:00:18.850Z,18.37
2017-10-13T12:01:19.435Z,18.34
2017-10-13T12:02:20.018Z,18.37
2017-10-13T12:03:20.602Z,18.37
2017-10-13T12:04:21.191Z,18.26
2017-10-13T12:05:21.770Z,18.26
2017-10-13T12:06:22.349Z,18.37
2017-10-13T12:07:22.926Z,18.40
2017-10-13T12:08:23.505Z,18.44
2017-10-13T12:09:24.083Z,18.53
2017-10-13T12:10:24.662Z,18.62
2017-10-13T12:11:25.241Z,18.34
2017-10-13T12:12:25.969Z,18.35
2017-10-13T12:13:26.545Z,18.43
2017-10-13T12:14:27.125Z,18.34
2017-10-13T12:15:27.714Z,18.58
2017-10-13T12:16:28.294Z,18.60
2017-10-13T12:17:28.877Z,18.71
2017-10-13T12:18:29.452Z,18.58
2017-10-13T12:19:30.030Z,18.80
2017-10-13T12:20:30.611Z,18.71
2017-10-13T12:21:31.199Z,18.89
2017-10-13T12:22:31.788Z,18.83
2017-10-13T12:23:32.367Z,18.84
2017-10-13T12:24:32.946Z,18.83
2017-10-13T12:25:33.527Z,18.75
2017-10-13T12:26:34.105Z,18.77
2017-10-13T12:27:34.684Z,18.80
2017-10-13T12:28:35.263Z,18.89
2017-10-13T12:29:35.841Z,18.83
2017-10-13T12:30:36.423Z,18.86
2017-10-13T12:31:37.001Z,18.89
2017-10-13T12:32:37.579Z,18.88
2017-10-13T12:33:38.160Z,18.78
2017-10-13T12:34:38.740Z,18.62
2017-10-13T12:35:39.330Z,18.43
2017-10-13T12:36:39.910Z,18.50
2017-10-13T12:37:40.489Z,18.44
2017-10-13T12:38:41.067Z,18.49
2017-10-13T12:39:41.647Z,18.33
2017-10-13T12:40:42.227Z,18.25
2017-10-13T12:41:42.805Z,18.44
2017-10-13T12:42:43.384Z,18.50
2017-10-13T12:43:43.961Z,18.53
2017-10-13T12:44:44.542Z,18.60
2017-10-13T12:45:45.121Z,18.75
2017-10-13T12:46:45.699Z,18.83
2017-10-13T12:47:46.289Z,18.71
2017-10-13T12:48:46.867Z,18.75
2017-10-13T12:49:47.445Z,18.66
2017-10-13T12:50:48.026Z,18.71
2017-10-13T12:51:48.631Z,18.68
2017-10-13T12:52:49.213Z,18.77
2017-10-13T12:53:49.792Z,18.71
2017-10-13T12:54:50.370Z,18.58
2017-10-13T12:55:50.957Z,18.66
2017-10-13T12:56:51.528Z,18.77
2017-10-13T12:57:52.109Z,18.78
2017-10-13T12:58:52.698Z,18.89
2017-10-13T12:59:53.278Z,18.96
2017-10-13T13:00:53.856Z,18.96
2017-10-13T13:01:54.436Z,19.04
2017-10-13T13:02:55.014Z,19.09
2017-10-13T13:03:55.595Z,19.15
2017-10-13T13:04:56.184Z,18.86
2017-10-13T13:05:56.764Z,18.88
2017-10-13T13:06:57.345Z,19.00
2017-10-13T13:07:57.935Z,19.00
2017-10-13T13:08:58.525Z,18.90
2017-10-13T13:09:59.104Z,18.92
2017-10-13T13:10:59.686Z,18.80
2017-10-13T13:12:00.263Z,18.84
2017-10-13T13:13:00.851Z,18.78
2017-10-13T13:14:01.430Z,18.90
2017-10-13T13:15:02.034Z,18.98
2017-10-13T13:16:02.615Z,18.92
2017-10-13T13:17:03.194Z,18.90
2017-10-13T13:18:03.773Z,18.93
2017-10-13T13:19:04.364Z,18.88
2017-10-13T13:20:04.953Z,18.90
2017-10-13T13:21:05.531Z,18.86
2017-10-13T13:22:06.109Z,18.83
2017-10-13T13:23:06.688Z,18.92
2017-10-13T13:24:07.267Z,18.92
2017-10-13T13:25:07.847Z,19.00
2017-10-13T13:26:08.426Z,18.99
2017-10-13T13:27:09.004Z,18.98
2017-10-13T13:28:09.586Z,18.98
2017-10-13T13:29:10.164Z,18.90
2017-10-13T13:30:10.747Z,18.96
2017-10-13T13:31:11.322Z,19.08
2017-10-13T13:32:11.901Z,18.99
2017-10-13T13:33:12.490Z,18.90
2017-10-13T13:34:13.068Z,19.09
2017-10-13T13:35:13.648Z,19.18
2017-10-13T13:36:14.229Z,19.27
2017-10-13T13:37:14.808Z,19.31
2017-10-13T13:38:15.387Z,19.30
2017-10-13T13:39:15.969Z,19.18
2017-10-13T13:40:16.556Z,19.30
2017-10-13T13:41:17.135Z,19.36
2017-10-13T13:42:17.726Z,19.22
2017-10-13T13:43:18.307Z,19.41
2017-10-13T13:44:18.885Z,19.39
2017-10-13T13:45:19.465Z,19.30
2017-10-13T13:46:20.044Z,19.31
2017-10-13T13:47:20.624Z,19.27
2017-10-13T13:48:21.216Z,19.29
2017-10-13T13:49:21.795Z,19.31
2017-10-13T13:50:22.374Z,19.24
2017-10-13T13:51:22.953Z,19.37
2017-10-13T13:52:23.532Z,19.37
2017-10-13T13:53:24.111Z,19.36
2017-10-13T13:54:24.692Z,19.29
2017-10-13T13:55:25.277Z,19.33
2017-10-13T13:56:25.854Z,19.36
2017-10-13T13:57:26.434Z,19.24
2017-10-13T13:58:27.017Z,19.37
2017-10-13T13:59:27.604Z,19.30
2017-10-13T14:00:28.186Z,19.31
2017-10-13T14:01:28.767Z,19.47
2017-10-13T14:02:29.346Z,19.51
2017-10-13T14:03:29.944Z,19.62
2017-10-13T14:04:30.526Z,19.54
2017-10-13T14:05:31.104Z,19.48
2017-10-13T14:06:31.685Z,19.44
2017-10-13T14:07:32.266Z,19.54
2017-10-13T14:08:32.843Z,19.54
2017-10-13T14:09:33.435Z,19.49
2017-10-13T14:10:34.014Z,19.55
2017-10-13T14:11:34.592Z,19.58
2017-10-13T14:12:35.172Z,19.44
2017-10-13T14:13:35.752Z,19.62
2017-10-13T14:14:36.332Z,19.55
2017-10-13T14:15:36.912Z,19.45
2017-10-13T14:16:37.489Z,19.44
2017-10-13T14:17:38.070Z,19.48
2017-10-13T14:18:38.658Z,19.39
2017-10-13T14:19:39.241Z,19.47
2017-10-13T14:20:39.820Z,19.40
2017-10-13T14:21:40.402Z,19.44
2017-10-13T14:22:40.978Z,19.39
2017-10-13T14:23:41.559Z,19.41
2017-10-13T14:24:42.142Z,19.36
2017-10-13T14:25:42.719Z,19.58
2017-10-13T14:26:43.298Z,19.56
2017-10-13T14:27:43.878Z,19.52
2017-10-13T14:28:44.462Z,19.52
2017-10-13T14:29:45.039Z,19.52
2017-10-13T14:30:45.618Z,19.45
2017-10-13T14:31:46.197Z,19.52
2017-10-13T14:32:46.778Z,19.48
2017-10-13T14:33:47.359Z,19.41
2017-10-13T14:34:47.938Z,19.44